createdAt,value
2023-03-21T00:00:47.929Z,10.33
2023-03-21T00:03:16.285Z,6.53
2023-03-21T00:05:51.892Z,4.10
2023-03-21T00:08:21.492Z,5.33
2023-03-21T00:10:57.381Z,4.70
2023-03-21T00:13:26.462Z,3.53
2023-03-21T00:16:18.667Z,3.83
2023-03-21T00:18:46.410Z,5.00
2023-03-21T00:24:06.441Z,3.33
2023-03-21T00:26:34.512Z,4.57
2023-03-21T00:29:02.055Z,3.67
2023-03-21T00:31:30.157Z,3.23
2023-03-21T00:33:57.802Z,4.73
2023-03-21T00:36:26.071Z,4.40
2023-03-21T00:38:54.727Z,4.47
2023-03-21T00:41:39.230Z,4.83
2023-03-21T00:44:13.601Z,6.27
2023-03-21T00:46:54.170Z,4.57
2023-03-21T00:49:28.590Z,3.87
2023-03-21T00:51:59.593Z,5.47
2023-03-21T00:54:35.666Z,3.63
2023-03-21T00:57:05.302Z,5.32
2023-03-21T00:59:33.037Z,3.97
2023-03-21T01:02:00.697Z,4.50
2023-03-21T01:04:28.856Z,4.30
2023-03-21T01:06:56.457Z,4.28
2023-03-21T01:09:25.421Z,3.58
2023-03-21T01:11:54.241Z,5.57
2023-03-21T01:14:23.980Z,3.88
2023-03-21T01:16:53.458Z,3.90
2023-03-21T01:19:38.015Z,3.80
2023-03-21T01:22:08.717Z,3.55
2023-03-21T01:24:40.460Z,4.30
2023-03-21T01:27:11.199Z,6.38
2023-03-21T01:29:38.718Z,7.47
2023-03-21T01:32:06.440Z,5.23
2023-03-21T01:34:34.302Z,5.80
2023-03-21T01:37:01.935Z,3.90
2023-03-21T01:39:34.843Z,7.33
2023-03-21T01:42:02.412Z,5.33
2023-03-21T01:44:30.797Z,6.83
2023-03-21T01:47:10.594Z,4.63
2023-03-21T01:49:52.563Z,4.67
2023-03-21T01:52:38.703Z,4.87
2023-03-21T01:55:13.926Z,5.97
2023-03-21T01:58:05.436Z,4.77
2023-03-21T02:00:55.209Z,5.17
2023-03-21T02:03:38.474Z,6.30
2023-03-21T02:06:48.964Z,4.23
2023-03-21T02:09:33.434Z,4.83
2023-03-21T02:12:02.133Z,4.13
2023-03-21T02:14:34.650Z,5.63
2023-03-21T02:17:54.277Z,3.20
2023-03-21T02:21:27.690Z,5.23
2023-03-21T02:25:06.143Z,5.97
2023-03-21T02:27:51.244Z,4.67
2023-03-21T02:31:16.455Z,4.47
2023-03-21T02:34:27.260Z,5.80
2023-03-21T02:37:18.969Z,4.68
2023-03-21T02:40:11.022Z,4.90
2023-03-21T02:43:01.209Z,3.77
2023-03-21T02:45:43.617Z,4.93
2023-03-21T02:48:29.317Z,5.13
2023-03-21T02:51:04.177Z,4.67
2023-03-21T02:53:40.622Z,5.63
2023-03-21T02:56:10.755Z,7.40
2023-03-21T02:58:43.700Z,8.30
2023-03-21T03:01:11.549Z,7.13
2023-03-21T03:03:44.728Z,5.03
2023-03-21T03:06:29.034Z,4.27
2023-03-21T03:09:56.192Z,8.60
2023-03-21T03:13:08.100Z,5.37
2023-03-21T03:16:05.145Z,5.57
2023-03-21T03:18:56.780Z,4.23
2023-03-21T03:21:56.639Z,6.33
2023-03-21T03:24:36.836Z,3.87
2023-03-21T03:27:17.642Z,4.03
2023-03-21T03:29:48.722Z,3.30
2023-03-21T03:32:35.469Z,4.67
2023-03-21T03:35:06.858Z,4.43
2023-03-21T03:37:37.311Z,4.13
2023-03-21T03:40:18.226Z,3.30
2023-03-21T03:43:03.045Z,4.20
2023-03-21T03:45:43.979Z,4.57
2023-03-21T03:48:34.086Z,6.50
2023-03-21T03:51:10.395Z,4.37
2023-03-21T03:54:07.685Z,4.20
2023-03-21T03:56:36.383Z,7.23
2023-03-21T03:59:07.541Z,3.77
2023-03-21T04:01:53.691Z,4.20
2023-03-21T04:04:22.977Z,5.33
2023-03-21T04:06:53.405Z,3.90
2023-03-21T04:09:37.212Z,4.60
2023-03-21T04:12:10.777Z,4.63
2023-03-21T04:14:45.694Z,3.67
2023-03-21T04:17:16.037Z,3.10
2023-03-21T04:19:43.628Z,3.97
2023-03-21T04:22:12.564Z,5.50
2023-03-21T04:24:44.047Z,4.10
2023-03-21T04:27:11.619Z,5.47
2023-03-21T04:29:42.083Z,5.50
2023-03-21T04:32:42.609Z,4.03
2023-03-21T04:35:15.357Z,4.40
2023-03-21T04:37:42.873Z,4.23
2023-03-21T04:40:17.614Z,5.43
2023-03-21T04:42:47.744Z,4.60
2023-03-21T04:45:17.466Z,3.90
2023-03-21T04:47:46.590Z,5.57
2023-03-21T04:50:15.797Z,3.97
2023-03-21T04:52:44.302Z,5.27
2023-03-21T04:55:11.891Z,3.53
2023-03-21T04:57:40.295Z,3.57
2023-03-21T05:00:13.092Z,3.30
2023-03-21T05:02:41.032Z,3.83
2023-03-21T05:05:11.325Z,4.93
2023-03-21T05:07:41.157Z,5.07
2023-03-21T05:10:12.257Z,6.00
2023-03-21T05:12:42.672Z,5.10
2023-03-21T05:15:10.653Z,4.97
2023-03-21T05:17:38.493Z,5.27
2023-03-21T05:20:09.255Z,5.10
2023-03-21T05:22:40.270Z,4.77
2023-03-21T05:25:11.668Z,4.60
2023-03-21T05:28:04.742Z,5.37
2023-03-21T05:30:33.524Z,6.23
2023-03-21T05:33:02.738Z,5.83
2023-03-21T05:35:31.376Z,4.73
2023-03-21T05:38:02.032Z,4.20
2023-03-21T05:40:33.174Z,4.10
2023-03-21T05:43:01.023Z,5.17
2023-03-21T05:45:28.588Z,7.67
2023-03-21T05:47:56.626Z,4.90
2023-03-21T05:50:29.357Z,4.77
2023-03-21T05:53:17.469Z,6.63
2023-03-21T05:55:45.594Z,5.87
2023-03-21T05:58:24.568Z,4.43
2023-03-21T06:00:52.593Z,5.97
2023-03-21T06:03:27.652Z,7.37
2023-03-21T06:06:03.598Z,7.03
2023-03-21T06:08:37.156Z,5.37
2023-03-21T06:11:20.204Z,5.93
2023-03-21T06:13:48.146Z,5.35
2023-03-21T06:16:15.812Z,6.73
2023-03-21T06:18:43.977Z,9.27
2023-03-21T06:21:26.359Z,10.00
2023-03-21T06:23:54.325Z,12.40
2023-03-21T06:26:23.253Z,13.67
2023-03-21T06:28:54.034Z,7.37
2023-03-21T06:31:22.690Z,3.87
2023-03-21T06:33:52.126Z,4.13
2023-03-21T06:36:20.194Z,3.90
2023-03-21T06:38:48.602Z,4.43
2023-03-21T06:41:16.949Z,4.90
2023-03-21T06:43:52.067Z,4.10
2023-03-21T06:46:20.379Z,5.67
2023-03-21T06:48:48.495Z,4.50
2023-03-21T06:51:16.656Z,4.17
2023-03-21T06:53:57.428Z,4.13
2023-03-21T06:56:30.749Z,3.20
2023-03-21T06:58:58.596Z,2.87
2023-03-21T07:01:45.484Z,4.47
2023-03-21T07:04:13.789Z,5.20
2023-03-21T07:06:42.406Z,3.53
2023-03-21T07:09:10.038Z,3.30
2023-03-21T07:11:38.689Z,3.77
2023-03-21T07:14:06.893Z,4.27
2023-03-21T07:16:34.780Z,3.47
2023-03-21T07:19:02.341Z,7.60
2023-03-21T07:21:29.895Z,5.33
2023-03-21T07:23:57.497Z,5.67
2023-03-21T07:26:25.048Z,3.70
2023-03-21T07:28:52.553Z,4.60
2023-03-21T07:31:20.229Z,2.90
2023-03-21T07:33:49.211Z,5.00
2023-03-21T07:36:16.887Z,3.03
2023-03-21T07:38:46.254Z,2.90
2023-03-21T07:43:46.719Z,3.00
2023-03-21T07:46:14.384Z,4.23
2023-03-21T07:48:41.904Z,3.03
2023-03-21T07:51:09.665Z,3.13
2023-03-21T07:53:37.366Z,3.67
2023-03-21T07:56:05.659Z,3.40
2023-03-21T07:58:34.305Z,3.73
2023-03-21T08:01:02.324Z,3.93
2023-03-21T08:03:31.379Z,4.17
2023-03-21T08:06:02.057Z,3.38
2023-03-21T08:08:29.756Z,5.00
2023-03-21T08:10:57.461Z,6.50
2023-03-21T08:13:26.037Z,5.00
2023-03-21T08:15:53.837Z,4.60
2023-03-21T08:18:21.489Z,6.80
2023-03-21T08:20:57.060Z,9.13
2023-03-21T08:23:25.896Z,3.60
2023-03-21T08:25:54.937Z,4.70
2023-03-21T08:28:23.647Z,3.17
2023-03-21T08:30:51.334Z,3.17
2023-03-21T08:33:19.274Z,5.68
2023-03-21T08:35:47.281Z,3.70
2023-03-21T08:38:14.840Z,3.70
2023-03-21T08:40:42.478Z,4.23
2023-03-21T08:43:10.232Z,4.40
2023-03-21T08:45:38.137Z,2.77
2023-03-21T08:48:06.429Z,8.27
2023-03-21T08:50:33.967Z,4.70
2023-03-21T08:53:01.522Z,2.97
2023-03-21T08:55:29.090Z,3.05
2023-03-21T08:57:57.999Z,2.85
2023-03-21T09:00:25.952Z,2.67
2023-03-21T09:02:54.499Z,5.80
2023-03-21T09:05:25.446Z,3.22
2023-03-21T09:07:53.539Z,4.40
2023-03-21T09:10:23.298Z,4.35
2023-03-21T09:12:53.720Z,3.13
2023-03-21T09:15:24.925Z,2.75
2023-03-21T09:17:54.027Z,4.25
2023-03-21T09:20:30.908Z,4.22
2023-03-21T09:22:59.862Z,4.35
2023-03-21T09:25:30.938Z,3.40
2023-03-21T09:28:00.499Z,6.63
2023-03-21T09:30:29.339Z,6.97
2023-03-21T09:32:56.926Z,5.28
2023-03-21T09:35:24.808Z,6.22
2023-03-21T09:37:52.853Z,5.78
2023-03-21T09:41:16.519Z,3.10
2023-03-21T09:44:13.960Z,3.05
2023-03-21T09:47:20.674Z,2.47
2023-03-21T09:50:13.153Z,3.72
2023-03-21T09:53:38.943Z,5.40
2023-03-21T09:56:12.476Z,4.37
2023-03-21T09:58:55.236Z,3.40
2023-03-21T10:01:34.404Z,3.70
2023-03-21T10:04:07.989Z,2.67
2023-03-21T10:06:41.126Z,2.33
2023-03-21T10:09:24.315Z,2.45
2023-03-21T10:12:14.838Z,4.30
2023-03-21T10:14:51.768Z,3.63
2023-03-21T10:17:40.902Z,2.58
2023-03-21T10:20:21.697Z,5.00
2023-03-21T10:22:53.985Z,3.15
2023-03-21T10:25:54.026Z,2.85
2023-03-21T10:28:26.729Z,3.08
2023-03-21T10:31:07.230Z,2.50
2023-03-21T10:33:39.692Z,3.22
2023-03-21T10:36:25.827Z,2.33
2023-03-21T10:39:04.997Z,2.20
2023-03-21T10:41:34.159Z,3.72
2023-03-21T10:44:14.653Z,2.45
2023-03-21T10:46:57.814Z,2.88
2023-03-21T10:49:26.669Z,2.95
2023-03-21T10:51:59.291Z,3.00
2023-03-21T10:54:31.157Z,2.75
2023-03-21T10:57:23.111Z,3.17
2023-03-21T10:59:58.147Z,4.82
2023-03-21T11:02:33.714Z,6.90
2023-03-21T11:05:37.376Z,7.80
2023-03-21T11:08:12.146Z,3.75
2023-03-21T11:11:08.662Z,4.38
2023-03-21T11:13:44.731Z,3.20
2023-03-21T11:16:22.679Z,3.42
2023-03-21T11:18:56.450Z,1.95
2023-03-21T11:23:57.637Z,4.00
2023-03-21T11:26:36.797Z,1.63
2023-03-21T11:29:32.858Z,3.60
2023-03-21T11:32:12.647Z,4.18
2023-03-21T11:35:00.342Z,2.28
2023-03-21T11:37:57.049Z,2.45
2023-03-21T11:40:34.113Z,2.88
2023-03-21T11:43:23.109Z,1.85
2023-03-21T11:46:10.415Z,3.85
2023-03-21T11:48:46.919Z,2.33
2023-03-21T11:51:29.439Z,3.17
2023-03-21T11:54:10.755Z,4.15
2023-03-21T11:56:59.355Z,4.07
2023-03-21T11:59:49.416Z,5.88
2023-03-21T12:02:42.940Z,2.60
2023-03-21T12:05:46.224Z,3.22
2023-03-21T12:08:40.202Z,2.72
2023-03-21T12:11:43.253Z,3.08
2023-03-21T12:14:34.644Z,4.57
2023-03-21T12:17:47.593Z,2.22
2023-03-21T12:20:35.132Z,3.28
2023-03-21T12:23:45.554Z,5.20
2023-03-21T12:26:42.207Z,7.15
2023-03-21T12:29:18.842Z,2.58
2023-03-21T12:32:11.018Z,4.22
2023-03-21T12:35:06.763Z,2.38
2023-03-21T12:38:01.886Z,3.03
2023-03-21T12:41:08.078Z,4.82
2023-03-21T12:44:01.428Z,3.70
2023-03-21T12:46:42.790Z,2.67
2023-03-21T12:49:26.497Z,2.92
2023-03-21T12:52:34.669Z,3.22
2023-03-21T12:55:21.385Z,2.55
2023-03-21T12:58:06.182Z,2.88
2023-03-21T13:00:56.968Z,5.50
2023-03-21T13:03:54.314Z,2.60
2023-03-21T13:06:24.872Z,2.78
2023-03-21T13:09:36.711Z,3.78
2023-03-21T13:13:02.614Z,2.15
2023-03-21T13:18:12.456Z,3.08
2023-03-21T13:20:47.560Z,5.55
2023-03-21T13:23:15.352Z,3.88
2023-03-21T13:25:48.108Z,3.40
2023-03-21T13:28:27.482Z,4.45
2023-03-21T13:31:24.858Z,4.90
2023-03-21T13:33:58.586Z,3.90
2023-03-21T13:39:06.790Z,6.53
2023-03-21T13:41:47.134Z,5.68
2023-03-21T13:44:48.966Z,2.95
2023-03-21T13:47:50.843Z,3.75
2023-03-21T13:50:18.270Z,4.38
2023-03-21T13:53:11.107Z,3.70
2023-03-21T13:55:45.932Z,4.20
2023-03-21T13:58:49.724Z,3.78
2023-03-21T14:01:38.400Z,5.20
2023-03-21T14:04:15.531Z,3.67
2023-03-21T14:07:05.835Z,4.05
2023-03-21T14:09:46.128Z,3.30
2023-03-21T14:12:36.626Z,5.22
2023-03-21T14:15:17.795Z,3.55
2023-03-21T14:17:55.400Z,3.50
2023-03-21T14:20:30.680Z,4.32
2023-03-21T14:22:58.509Z,4.50
2023-03-21T14:25:41.033Z,3.42
2023-03-21T14:28:28.734Z,5.72
2023-03-21T14:31:02.163Z,3.45
2023-03-21T14:33:39.381Z,8.15
2023-03-21T14:36:35.215Z,4.18
2023-03-21T14:39:24.002Z,3.13
2023-03-21T14:41:55.522Z,6.38
2023-03-21T14:44:26.505Z,4.90
2023-03-21T14:47:06.126Z,4.55
2023-03-21T14:49:36.786Z,5.55
2023-03-21T14:52:20.558Z,5.15
2023-03-21T14:54:49.301Z,3.60
2023-03-21T14:57:37.704Z,5.65
2023-03-21T15:00:14.445Z,4.07
2023-03-21T15:02:44.618Z,4.28
2023-03-21T15:05:22.001Z,4.30
2023-03-21T15:07:57.400Z,4.50
2023-03-21T15:10:28.323Z,5.45
2023-03-21T15:13:00.267Z,4.38
2023-03-21T15:15:29.948Z,3.67
2023-03-21T15:18:08.273Z,9.00
2023-03-21T15:20:38.357Z,5.68
2023-03-21T15:23:29.850Z,4.90
2023-03-21T15:25:58.484Z,4.47
2023-03-21T15:28:26.291Z,4.28
2023-03-21T15:30:54.761Z,3.30
2023-03-21T15:33:25.436Z,4.38
2023-03-21T15:35:58.136Z,2.40
2023-03-21T15:38:44.898Z,3.37
2023-03-21T15:41:28.783Z,3.92
2023-03-21T15:46:41.368Z,4.47
2023-03-21T15:49:15.007Z,4.78
2023-03-21T15:52:04.421Z,3.45
2023-03-21T15:54:43.416Z,2.97
2023-03-21T15:57:38.025Z,4.20
2023-03-21T16:00:19.696Z,3.85
2023-03-21T16:02:53.335Z,3.53
2023-03-21T16:08:20.573Z,3.20
2023-03-21T16:10:49.040Z,6.90
2023-03-21T16:13:17.533Z,3.55
2023-03-21T16:15:46.875Z,3.15
2023-03-21T16:18:17.357Z,4.18
2023-03-21T16:20:46.751Z,2.92
2023-03-21T16:23:15.807Z,5.32
2023-03-21T16:25:44.561Z,3.53
2023-03-21T16:28:17.138Z,5.10
2023-03-21T16:30:45.409Z,2.85
2023-03-21T16:33:13.766Z,4.97
2023-03-21T16:35:41.480Z,4.55
2023-03-21T16:38:12.350Z,4.18
2023-03-21T16:40:43.515Z,4.32
2023-03-21T16:43:11.672Z,4.70
2023-03-21T16:45:39.337Z,5.55
2023-03-21T16:48:08.724Z,3.47
2023-03-21T16:50:42.416Z,3.47
2023-03-21T16:53:10.173Z,3.47
2023-03-21T16:55:38.770Z,3.25
2023-03-21T16:58:06.528Z,6.28
2023-03-21T17:00:37.566Z,6.63
2023-03-21T17:03:18.085Z,28.67
2023-03-21T17:05:46.198Z,31.10
2023-03-21T17:08:17.070Z,39.42
2023-03-21T17:10:45.944Z,26.63
2023-03-21T17:13:13.522Z,11.88
2023-03-21T17:15:42.085Z,8.38
2023-03-21T17:18:11.866Z,7.13
2023-03-21T17:20:41.403Z,6.22
2023-03-21T17:23:10.368Z,4.45
2023-03-21T17:25:38.136Z,4.30
2023-03-21T17:28:05.693Z,5.90
2023-03-21T17:30:36.780Z,9.02
2023-03-21T17:33:04.461Z,5.20
2023-03-21T17:35:32.249Z,5.00
2023-03-21T17:37:59.777Z,14.38
2023-03-21T17:40:32.159Z,5.63
2023-03-21T17:43:01.289Z,9.45
2023-03-21T17:45:29.654Z,5.68
2023-03-21T17:47:57.334Z,7.80
2023-03-21T17:50:27.531Z,14.20
2023-03-21T17:52:57.739Z,7.57
2023-03-21T17:55:26.139Z,5.38
2023-03-21T17:57:53.903Z,7.00
2023-03-21T18:00:28.332Z,7.28
2023-03-21T18:02:56.554Z,5.57
2023-03-21T18:05:25.508Z,5.85
2023-03-21T18:08:09.870Z,11.05
2023-03-21T18:10:40.027Z,10.35
2023-03-21T18:13:07.822Z,22.98
2023-03-21T18:15:38.053Z,21.48
2023-03-21T18:18:06.044Z,9.30
2023-03-21T18:23:21.920Z,6.72
2023-03-21T18:25:52.202Z,8.38
2023-03-21T18:28:21.485Z,9.73
2023-03-21T18:33:41.324Z,5.90
2023-03-21T18:36:10.329Z,5.35
2023-03-21T18:38:38.214Z,6.38
2023-03-21T18:41:07.815Z,5.82
2023-03-21T18:46:24.859Z,10.88
2023-03-21T18:48:52.664Z,9.13
2023-03-21T18:51:20.324Z,8.82
2023-03-21T18:53:47.833Z,18.63
2023-03-21T18:56:57.772Z,16.88
2023-03-21T18:59:04.951Z,16.02
2023-03-21T19:01:32.783Z,10.30
2023-03-21T19:06:50.078Z,21.35
2023-03-21T19:09:18.643Z,40.28
2023-03-21T19:11:47.119Z,49.22
2023-03-21T19:14:16.927Z,101.30
2023-03-21T19:17:18.318Z,79.60
2023-03-21T19:19:33.672Z,20.75
2023-03-21T19:22:01.657Z,11.90
2023-03-21T19:24:29.665Z,7.88
2023-03-21T19:26:57.541Z,8.20
2023-03-21T19:29:25.717Z,7.30
2023-03-21T19:31:53.508Z,9.00
2023-03-21T19:34:21.175Z,7.85
2023-03-21T19:36:52.024Z,10.95
2023-03-21T19:39:22.598Z,8.68
2023-03-21T19:41:55.254Z,9.52
2023-03-21T19:44:29.706Z,8.73
2023-03-21T19:46:57.220Z,7.63
2023-03-21T19:49:34.725Z,10.02
2023-03-21T19:52:13.350Z,10.65
2023-03-21T19:54:40.946Z,10.68
2023-03-21T19:57:09.758Z,7.00
2023-03-21T19:59:37.703Z,8.02
2023-03-21T20:02:31.190Z,7.07
2023-03-21T20:04:53.534Z,7.70
2023-03-21T20:07:21.028Z,6.82
2023-03-21T20:09:52.843Z,13.07
2023-03-21T20:12:22.983Z,17.33
2023-03-21T20:14:55.989Z,10.38
2023-03-21T20:17:32.897Z,7.47
2023-03-21T20:20:01.032Z,8.27
2023-03-21T20:22:58.859Z,7.72
2023-03-21T20:25:16.715Z,9.20
2023-03-21T20:27:44.945Z,8.20
2023-03-21T20:30:18.857Z,6.32
2023-03-21T20:32:47.014Z,6.05
2023-03-21T20:35:29.507Z,4.85
2023-03-21T20:38:05.289Z,3.50
2023-03-21T20:40:32.794Z,7.60
2023-03-21T20:43:28.437Z,3.83
2023-03-21T20:45:49.107Z,4.32
2023-03-21T20:48:16.970Z,4.78
2023-03-21T20:50:44.868Z,4.18
2023-03-21T20:53:12.647Z,4.40
2023-03-21T20:55:40.366Z,4.10
2023-03-21T20:58:30.044Z,3.90
2023-03-21T21:00:59.575Z,4.95
2023-03-21T21:03:27.164Z,5.85
2023-03-21T21:05:54.905Z,4.43
2023-03-21T21:08:22.396Z,4.60
2023-03-21T21:11:32.682Z,5.60
2023-03-21T21:13:37.876Z,4.85
2023-03-21T21:16:07.650Z,6.05
2023-03-21T21:18:36.573Z,7.10
2023-03-21T21:21:06.883Z,5.10
2023-03-21T21:23:39.723Z,4.07
2023-03-21T21:26:09.147Z,3.60
2023-03-21T21:28:38.322Z,3.67
2023-03-21T21:31:19.840Z,3.65
2023-03-21T21:33:50.067Z,3.38
2023-03-21T21:36:17.727Z,2.63
2023-03-21T21:38:46.291Z,3.60
2023-03-21T21:41:25.196Z,2.92
2023-03-21T21:43:52.732Z,2.70
2023-03-21T21:46:20.296Z,2.85
2023-03-21T21:48:48.835Z,3.42
2023-03-21T21:51:26.083Z,3.75
2023-03-21T21:53:55.895Z,5.78
2023-03-21T21:56:25.895Z,3.33
2023-03-21T21:58:54.466Z,4.90
2023-03-21T22:01:21.981Z,3.63
2023-03-21T22:03:51.591Z,3.25
2023-03-21T22:06:19.108Z,3.08
2023-03-21T22:08:47.061Z,4.65
2023-03-21T22:11:15.910Z,2.60
2023-03-21T22:13:43.619Z,5.00
2023-03-21T22:16:11.780Z,5.63
2023-03-21T22:18:39.342Z,7.20
2023-03-21T22:21:07.362Z,16.20
2023-03-21T22:23:35.199Z,13.85
2023-03-21T22:26:02.819Z,18.13
2023-03-21T22:28:34.343Z,4.90
2023-03-21T22:31:10.276Z,5.20
2023-03-21T22:33:38.041Z,5.78
2023-03-21T22:36:06.893Z,5.40
2023-03-21T22:38:34.757Z,5.90
2023-03-21T22:41:05.398Z,8.27
2023-03-21T22:43:34.260Z,6.78
2023-03-21T22:46:03.847Z,4.30
2023-03-21T22:48:31.871Z,5.70
2023-03-21T22:51:00.439Z,11.90
2023-03-21T22:53:28.338Z,16.27
2023-03-21T22:55:56.420Z,11.40
2023-03-21T22:58:24.378Z,8.90
2023-03-21T23:00:52.074Z,10.32
2023-03-21T23:03:19.833Z,5.43
2023-03-21T23:05:47.336Z,5.10
2023-03-21T23:08:14.885Z,4.63
2023-03-21T23:10:44.102Z,4.28
2023-03-21T23:13:12.143Z,4.53
2023-03-21T23:15:39.884Z,4.07
2023-03-21T23:18:07.458Z,5.33
2023-03-21T23:20:35.329Z,5.53
2023-03-21T23:23:03.107Z,5.30
2023-03-21T23:25:30.752Z,3.23
2023-03-21T23:27:58.266Z,3.05
2023-03-21T23:30:26.354Z,3.57
2023-03-21T23:32:53.965Z,4.20
2023-03-21T23:35:21.520Z,3.33
2023-03-21T23:37:52.499Z,4.60
2023-03-21T23:40:21.256Z,5.83
2023-03-21T23:42:48.836Z,3.20
2023-03-21T23:45:16.428Z,2.87
2023-03-21T23:47:44.224Z,4.43
2023-03-21T23:50:11.845Z,2.53
2023-03-21T23:52:41.586Z,2.40
2023-03-21T23:55:09.773Z,2.37
2023-03-21T23:57:41.789Z,3.93
